createdAt,value
2022-10-09T00:25:27.820Z,13.76
2022-10-09T00:45:27.810Z,13.76
2022-10-09T01:05:27.284Z,13.75
2022-10-09T01:25:27.841Z,13.75
2022-10-09T01:45:27.269Z,13.74
2022-10-09T02:05:27.795Z,13.74
2022-10-09T02:25:27.816Z,13.74
2022-10-09T02:45:27.269Z,13.73
2022-10-09T03:05:27.789Z,13.72
2022-10-09T03:25:27.779Z,13.71
2022-10-09T03:45:27.779Z,13.7
2022-10-09T04:05:27.779Z,13.7
2022-10-09T04:25:27.799Z,13.68
2022-10-09T04:45:27.796Z,13.68
2022-10-09T05:05:27.779Z,13.67
2022-10-09T05:25:26.993Z,13.66
2022-10-09T05:45:27.818Z,13.66
2022-10-09T06:05:27.770Z,13.65
2022-10-09T06:25:27.770Z,13.65
2022-10-09T06:45:27.766Z,13.65
2022-10-09T07:05:27.760Z,13.64
2022-10-09T07:25:27.767Z,13.63
2022-10-09T07:45:27.597Z,13.61
2022-10-09T08:25:27.168Z,13.59
2022-10-09T08:45:27.666Z,13.57
2022-10-09T09:05:27.637Z,13.56
2022-10-09T09:25:27.601Z,13.56
2022-10-09T09:45:27.584Z,13.55
2022-10-09T10:05:27.571Z,13.55
2022-10-09T11:05:26.669Z,13.53
2022-10-09T11:25:27.419Z,13.53
2022-10-09T11:45:27.309Z,13.52
2022-10-09T12:05:27.385Z,13.51
2022-10-09T12:25:27.333Z,13.5
2022-10-09T12:45:26.798Z,13.49
2022-10-09T13:05:26.748Z,13.49
2022-10-09T13:25:26.722Z,13.48
2022-10-09T13:45:27.214Z,13.48
2022-10-09T14:05:27.212Z,13.47
2022-10-09T14:25:27.154Z,13.47
2022-10-09T15:45:27.047Z,13.47
2022-10-09T16:25:26.974Z,13.47
2022-10-09T16:45:26.956Z,13.47
2022-10-09T17:05:26.778Z,13.47
2022-10-09T17:45:26.942Z,13.48
2022-10-09T19:25:26.801Z,13.5
2022-10-09T21:05:26.747Z,13.51
2022-10-09T21:25:26.739Z,13.51
2022-10-09T21:45:26.730Z,13.51
2022-10-09T22:05:26.766Z,13.51
2022-10-09T22:25:26.732Z,13.51
2022-10-09T22:45:26.720Z,13.51
2022-10-09T23:05:26.710Z,13.51
2022-10-09T23:25:26.726Z,13.51
